createdAt,value
2022-12-13T00:02:47.145Z,3.00
2022-12-13T00:07:49.302Z,2.90
2022-12-13T00:12:51.360Z,2.13
2022-12-13T00:17:53.384Z,5.37
2022-12-13T00:22:55.552Z,3.70
2022-12-13T00:27:57.569Z,2.97
2022-12-13T00:32:59.756Z,4.53
2022-12-13T00:38:01.794Z,2.97
2022-12-13T00:43:03.934Z,3.73
2022-12-13T00:48:06.832Z,3.93
2022-12-13T00:53:09.961Z,3.17
2022-12-13T00:58:12.045Z,3.17
2022-12-13T01:03:25.764Z,3.17
2022-12-13T01:08:29.239Z,3.87
2022-12-13T01:13:31.812Z,4.20
2022-12-13T01:18:34.251Z,3.17
2022-12-13T01:23:36.335Z,3.10
2022-12-13T01:28:38.556Z,3.27
2022-12-13T01:33:40.880Z,3.67
2022-12-13T01:38:42.958Z,3.17
2022-12-13T01:43:45.243Z,3.60
2022-12-13T01:48:57.804Z,3.80
2022-12-13T01:54:01.967Z,3.73
2022-12-13T01:59:05.662Z,4.27
2022-12-13T02:04:08.585Z,3.70
2022-12-13T02:09:11.428Z,3.50
2022-12-13T02:14:13.525Z,4.47
2022-12-13T02:19:26.497Z,4.50
2022-12-13T02:25:04.960Z,4.00
2022-12-13T02:30:27.250Z,2.53
2022-12-13T02:35:53.012Z,2.97
2022-12-13T02:41:06.930Z,4.97
2022-12-13T02:46:10.194Z,3.60
2022-12-13T02:51:13.121Z,3.43
2022-12-13T02:56:15.402Z,4.60
2022-12-13T03:01:28.705Z,4.40
2022-12-13T03:06:55.938Z,5.07
2022-12-13T03:12:56.552Z,5.17
2022-12-13T03:18:15.861Z,5.03
2022-12-13T03:23:21.138Z,5.33
2022-12-13T03:28:23.807Z,5.93
2022-12-13T03:33:25.885Z,6.33
2022-12-13T03:38:28.715Z,6.27
2022-12-13T03:43:31.062Z,4.90
2022-12-13T03:48:33.302Z,8.07
2022-12-13T03:53:35.375Z,6.87
2022-12-13T03:58:38.432Z,5.47
2022-12-13T04:03:42.755Z,8.03
2022-12-13T04:08:45.448Z,5.73
2022-12-13T04:13:47.548Z,8.17
2022-12-13T04:18:49.918Z,6.00
2022-12-13T04:23:52.020Z,4.60
2022-12-13T04:28:54.810Z,6.83
2022-12-13T04:33:57.012Z,5.63
2022-12-13T04:39:00.563Z,5.67
2022-12-13T04:44:04.186Z,6.23
2022-12-13T04:49:06.361Z,7.13
2022-12-13T04:54:24.420Z,4.37
2022-12-13T04:59:26.727Z,7.13
2022-12-13T05:04:32.631Z,5.53
2022-12-13T05:09:36.266Z,6.33
2022-12-13T05:14:38.376Z,5.47
2022-12-13T05:19:40.416Z,6.67
2022-12-13T05:24:44.351Z,4.97
2022-12-13T05:29:46.390Z,8.57
2022-12-13T05:34:48.550Z,5.10
2022-12-13T05:39:50.576Z,5.60
2022-12-13T05:44:53.213Z,7.30
2022-12-13T05:49:55.338Z,12.63
2022-12-13T05:55:00.721Z,6.57
2022-12-13T06:00:29.002Z,7.40
2022-12-13T06:05:31.087Z,5.73
2022-12-13T06:10:34.462Z,7.43
2022-12-13T06:15:38.482Z,7.63
2022-12-13T06:20:56.746Z,9.38
2022-12-13T06:25:59.323Z,9.30
2022-12-13T06:31:02.537Z,8.50
2022-12-13T06:36:06.181Z,7.63
2022-12-13T06:41:12.356Z,9.17
2022-12-13T06:46:15.752Z,9.67
2022-12-13T06:51:22.661Z,9.57
2022-12-13T06:56:26.495Z,9.13
2022-12-13T07:01:28.684Z,6.97
2022-12-13T07:06:39.608Z,7.53
2022-12-13T07:11:44.706Z,8.17
2022-12-13T07:16:50.869Z,8.07
2022-12-13T07:21:53.074Z,7.37
2022-12-13T07:27:04.147Z,8.77
2022-12-13T07:32:09.446Z,7.57
2022-12-13T07:37:29.260Z,10.07
2022-12-13T07:42:33.193Z,8.63
2022-12-13T07:47:35.416Z,10.13
2022-12-13T07:52:38.786Z,7.67
2022-12-13T07:57:41.049Z,5.20
2022-12-13T08:02:48.410Z,3.07
2022-12-13T08:07:54.290Z,2.70
2022-12-13T08:13:00.989Z,2.50
2022-12-13T08:18:04.204Z,2.97
2022-12-13T08:23:10.309Z,2.00
2022-12-13T08:28:16.251Z,1.63
2022-12-13T08:33:19.160Z,1.77
2022-12-13T08:38:40.256Z,2.60
2022-12-13T08:43:42.485Z,2.03
2022-12-13T08:48:44.744Z,2.30
2022-12-13T08:53:47.519Z,1.27
2022-12-13T08:58:51.652Z,2.33
2022-12-13T09:03:56.022Z,1.93
2022-12-13T09:08:59.876Z,2.63
2022-12-13T09:14:05.931Z,3.00
2022-12-13T09:19:26.374Z,1.80
2022-12-13T09:24:29.077Z,4.17
2022-12-13T09:29:39.544Z,5.57
2022-12-13T09:34:46.065Z,3.23
2022-12-13T09:39:54.851Z,3.47
2022-12-13T09:45:06.080Z,4.18
2022-12-13T09:50:38.169Z,6.07
2022-12-13T09:55:49.727Z,6.23
2022-12-13T10:00:55.618Z,7.77
2022-12-13T10:06:00.341Z,7.87
2022-12-13T10:11:03.293Z,10.13
2022-12-13T10:16:26.217Z,11.00
2022-12-13T10:21:32.782Z,10.17
2022-12-13T10:26:38.460Z,10.43
2022-12-13T10:31:49.679Z,9.93
2022-12-13T10:36:52.383Z,6.40
2022-12-13T10:42:04.969Z,10.73
2022-12-13T10:47:10.174Z,9.90
2022-12-13T10:52:31.593Z,7.07
2022-12-13T10:57:34.537Z,11.03
2022-12-13T11:02:40.226Z,10.10
2022-12-13T11:07:43.001Z,11.33
2022-12-13T12:13:11.146Z,8.47
2022-12-13T12:18:17.074Z,8.17
2022-12-13T12:24:00.747Z,8.30
2022-12-13T12:29:22.748Z,9.07
2022-12-13T12:34:57.496Z,10.50
2022-12-13T12:40:18.557Z,9.10
2022-12-13T12:51:16.818Z,10.23
2022-12-13T12:56:34.497Z,11.73
2022-12-13T13:01:43.309Z,10.33
2022-12-13T13:06:51.954Z,9.43
2022-12-13T13:11:57.166Z,17.63
2022-12-13T13:17:16.271Z,9.43
2022-12-13T13:22:42.988Z,10.17
2022-12-13T13:27:49.430Z,11.40
2022-12-13T13:32:54.009Z,11.17
2022-12-13T13:37:57.623Z,12.87
2022-12-13T13:43:12.498Z,10.97
2022-12-13T13:48:37.276Z,11.20
2022-12-13T13:54:07.183Z,10.73
2022-12-13T13:59:24.803Z,7.65
2022-12-13T14:04:53.879Z,10.00
2022-12-13T14:10:17.129Z,9.57
2022-12-13T14:15:28.435Z,10.83
2022-12-13T14:21:21.119Z,14.17
2022-12-13T14:26:38.658Z,14.63
2022-12-13T14:31:47.273Z,12.60
2022-12-13T14:37:01.376Z,13.43
2022-12-13T14:42:27.454Z,15.53
2022-12-13T14:47:29.760Z,11.57
2022-12-13T14:52:36.307Z,11.03
2022-12-13T14:57:38.629Z,15.17
2022-12-13T15:02:50.802Z,10.43
2022-12-13T15:07:53.551Z,11.33
2022-12-13T15:12:56.083Z,12.23
2022-12-13T15:18:20.405Z,13.97
2022-12-13T15:23:31.876Z,11.13
2022-12-13T15:28:48.215Z,10.37
2022-12-13T15:33:51.567Z,12.53
2022-12-13T15:38:54.021Z,13.13
2022-12-13T15:44:15.488Z,10.50
2022-12-13T15:49:53.035Z,13.90
2022-12-13T15:55:02.138Z,11.43
2022-12-13T16:00:29.200Z,12.57
2022-12-13T16:05:38.348Z,12.90
2022-12-13T16:10:40.710Z,12.97
2022-12-13T16:15:53.130Z,10.63
2022-12-13T16:21:02.842Z,11.97
2022-12-13T16:26:08.910Z,15.90
2022-12-13T16:31:19.275Z,13.87
2022-12-13T16:36:21.674Z,14.70
2022-12-13T16:41:24.556Z,11.00
2022-12-13T16:47:10.066Z,11.03
2022-12-13T16:51:50.088Z,14.73
2022-12-13T16:56:54.247Z,11.47
2022-12-13T17:01:56.609Z,11.77
2022-12-13T17:06:58.845Z,11.67
2022-12-13T17:12:01.325Z,11.33
2022-12-13T17:17:03.746Z,16.20
2022-12-13T17:22:05.999Z,14.83
2022-12-13T17:27:08.293Z,14.83
2022-12-13T17:32:10.545Z,13.50
2022-12-13T17:37:12.961Z,15.80
2022-12-13T17:42:15.964Z,14.80
2022-12-13T17:47:18.416Z,14.20
2022-12-13T17:52:20.851Z,13.90
2022-12-13T17:57:23.159Z,17.17
2022-12-13T18:02:26.092Z,15.30
2022-12-13T18:07:28.887Z,15.33
2022-12-13T18:12:31.556Z,20.43
2022-12-13T18:18:09.026Z,16.10
2022-12-13T18:22:56.092Z,12.97
2022-12-13T18:28:01.060Z,17.33
2022-12-13T18:33:05.290Z,16.27
2022-12-13T18:38:07.833Z,17.67
2022-12-13T18:43:10.071Z,18.73
2022-12-13T18:53:22.482Z,16.47
2022-12-13T18:58:25.095Z,16.23
2022-12-13T19:03:28.248Z,20.20
2022-12-13T19:08:31.031Z,16.13
2022-12-13T19:13:37.723Z,19.83
2022-12-13T19:18:40.527Z,22.53
2022-12-13T19:23:43.365Z,16.50
2022-12-13T19:28:46.398Z,22.30
2022-12-13T19:33:49.256Z,21.53
2022-12-13T19:38:56.193Z,21.70
2022-12-13T19:43:58.652Z,18.53
2022-12-13T19:49:00.963Z,24.47
2022-12-13T19:54:03.214Z,21.40
2022-12-13T19:59:05.632Z,15.80
2022-12-13T20:04:10.958Z,18.13
2022-12-13T20:09:15.742Z,21.83
2022-12-13T20:14:18.111Z,20.97
2022-12-13T20:19:20.524Z,17.97
2022-12-13T20:24:22.966Z,22.57
2022-12-13T20:29:25.426Z,15.50
2022-12-13T20:34:27.675Z,20.47
2022-12-13T20:39:29.979Z,16.77
2022-12-13T20:44:32.348Z,20.63
2022-12-13T20:49:34.743Z,19.57
2022-12-13T20:54:37.110Z,20.27
2022-12-13T20:59:39.356Z,12.17
2022-12-13T21:04:41.652Z,9.83
2022-12-13T21:09:43.959Z,9.63
2022-12-13T21:14:46.179Z,8.20
2022-12-13T21:19:50.394Z,8.83
2022-12-13T21:24:52.653Z,9.43
2022-12-13T21:29:54.880Z,6.93
2022-12-13T21:34:57.235Z,7.50
2022-12-13T21:39:59.546Z,7.80
2022-12-13T21:45:02.472Z,8.47
2022-12-13T21:50:05.609Z,8.60
2022-12-13T21:55:37.850Z,7.17
2022-12-13T22:00:31.031Z,6.20
2022-12-13T22:05:33.333Z,8.80
2022-12-13T22:10:55.620Z,9.47
2022-12-13T22:15:57.995Z,8.43
2022-12-13T22:21:00.677Z,6.80
2022-12-13T22:26:06.696Z,8.03
2022-12-13T22:31:08.907Z,8.63
2022-12-13T22:36:11.560Z,8.87
2022-12-13T22:41:16.315Z,8.43
2022-12-13T22:46:20.638Z,7.53
2022-12-13T22:51:22.949Z,7.13
2022-12-13T22:56:25.230Z,6.67
2022-12-13T23:01:32.349Z,6.07
2022-12-13T23:06:40.495Z,10.00
2022-12-13T23:12:01.138Z,9.80
2022-12-13T23:17:04.244Z,5.93
2022-12-13T23:22:08.738Z,6.40
2022-12-13T23:27:11.009Z,7.27
2022-12-13T23:32:13.373Z,10.07
2022-12-13T23:37:15.560Z,7.30
2022-12-13T23:42:17.815Z,8.77
2022-12-13T23:47:19.978Z,7.27
2022-12-13T23:52:22.203Z,7.60
2022-12-13T23:57:24.445Z,7.37
